Nearby METAR Reports

 

KORH - Worcester, Massachusetts, USA
Distance from station: NW 4mi, 7km
Updated: Tue, 15-Oct-2019 9:54am EDT
Clear
Clear
 Wind from NW
Wind: NW 9 mph , 15 km/h
Temperature: 50°F , 10°C
Wind Chill: 46°F , 8°C
Dew Point: 36°F , 2°C
Humidity: 58%
Barometer: 30.14 inHg , 1020.7 hPa
Clouds: Clear
Visibility: 10 miles , 16 km
2019/10/15 13:54 KORH 151354Z 32008KT 10SM CLR 10/02 A3014 RMK AO2 SLP209 T01000017
KBOS - Boston, Massachusetts, USA
Distance from station: ENE 42mi, 68km
Updated: Tue, 15-Oct-2019 9:54am EDT
Few Clouds
Few Clouds
 Wind from NW
Wind: NW 14 mph , 22 km/h, Gust: 21 mph , 33 km/h
Temperature: 57°F , 14°C
Dew Point: 36°F , 2°C
Humidity: 44%
Barometer: 30.14 inHg , 1020.7 hPa
Clouds: Few Clouds
Visibility: 10 miles , 16 km
Cloud details: Few Clouds 5000 ft
Few Clouds 25000 ft
2019/10/15 13:54 KBOS 151354Z 32012G18KT 10SM FEW050 FEW250 14/02 A3014 RMK AO2 SLP205 T01390022 $
 
KCQX - Chatham, Massachusetts, USA
Distance from station: SE 102mi, 164km
Updated: Tue, 15-Oct-2019 9:52am EDT
Clear
Clear
 Wind from varies
Wind: varies 7 mph , 11 km/h
Temperature: 55°F , 13°C
Dew Point: 43°F , 6°C
Humidity: 63%
Barometer: 30.12 inHg , 1020 hPa
Clouds: Clear
Visibility: 10 miles , 16 km
2019/10/15 13:52 KCQX 151352Z AUTO VRB06KT 10SM CLR 13/06 A3012 RMK AO2 SLP201 T01330061
KMVY - Marthas Vineyard, Massachusetts, USA
Distance from station: SE 84mi, 135km
Updated: Tue, 15-Oct-2019 9:53am EDT
Clear
Clear
 Wind from NW
Wind: NW 15 mph , 24 km/h, Gust: 20 mph , 31 km/h
Temperature: 55°F , 13°C
Dew Point: 41°F , 5°C
Humidity: 59%
Barometer: 30.13 inHg , 1020.3 hPa
Clouds: Clear
Visibility: 10 miles , 16 km
2019/10/15 13:53 KMVY 151353Z 32013G17KT 10SM CLR 13/05 A3013 RMK AO2 SLP203 T01280050
 
KPVC - Provincetown, Massachusetts, USA
Distance from station: NNW 85mi, 136km
Updated: Tue, 15-Oct-2019 9:56am EDT
Clear
Clear
 Wind from NNW
Wind: NNW 13 mph , 20 km/h
Temperature: 55°F , 13°C
Dew Point: 45°F , 7°C
Humidity: 67%
Barometer: 30.13 inHg , 1020.3 hPa
Clouds: Clear
Visibility: 10 miles , 16 km
2019/10/15 13:56 KPVC 151356Z AUTO 33011KT 10SM CLR 13/07 A3013 RMK AO2 SLP202 T01280067 PNO $
KAQW - Savoy, Massachusetts, USA
Distance from station: NNW 66mi, 106km
Updated: Tue, 15-Oct-2019 9:52am EDT
Clear
Clear
 Wind from calm
Wind: Calm
Temperature: 48°F , 9°C
Dew Point: 37°F , 3°C
Humidity: 66%
Barometer: 30.16 inHg , 1021.3 hPa
Clouds: Clear
Visibility: 10 miles , 16 km
2019/10/15 13:52 KAQW 151352Z AUTO 00000KT 10SM CLR 09/03 A3016 RMK AO2 SLP218 T00890028
 
KIZG - Fryeburg, Maine, USA
Distance from station: NNE 133mi, 214km
Updated: Tue, 15-Oct-2019 9:54am EDT
Clear
Clear
 Wind from WNW
Wind: WNW 9 mph , 15 km/h
Temperature: 52°F , 11°C
Dew Point: 32°F , 0°C
Humidity: 47%
Barometer: 30.11 inHg , 1019.6 hPa
Clouds: Clear
Visibility: 10 miles , 16 km
2019/10/15 13:54 KIZG 151354Z AUTO 30008KT 260V330 10SM CLR 11/00 A3011 RMK AO2 SLP196 T01110000
KMWN - Mt Washington, New Hampshire, USA
Distance from station: NNE 146mi, 234km
Updated: Tue, 15-Oct-2019 9:51am EDT
Freezing fog, Overcast
Freezing fog, Overcast
 Wind from WNW
Wind: WNW 35 mph , 56 km/h
Temperature: 21°F , -6°C
Wind Chill: 2°F , -17°C
Dew Point: 21°F , -6°C
Humidity: 100%
Summary: Freezing Fog
Clouds: Overcast
Visibility: 1/16 mile , 0.1 km
Cloud details: Overcast 100 ft
2019/10/15 13:51 KMWN 151351Z 30030KT 1/16SM FZFG VV001 M06/M06 RMK VRY LGT ICG
 
KBML - Berlin, New Hampshire, USA
Distance from station: NNE 160mi, 257km
Updated: Tue, 15-Oct-2019 9:52am EDT
Clear
Clear
 Wind from varies
Wind: varies 3 mph , 6 km/h
Temperature: 48°F , 9°C
Dew Point: 34°F , 1°C
Humidity: 58%
Barometer: 30.09 inHg , 1019 hPa
Clouds: Clear
Visibility: 10 miles , 16 km
2019/10/15 13:52 KBML 151352Z AUTO VRB03KT 10SM CLR 09/01 A3009 RMK AO2 SLP196 T00940006